Terminal Aerodrome Forecast
Issued by NWS

Home | Current Version | Previous Version | Text Only | Print | Product List | Glossary On
Versions: 1 2 3 4 5 6 7 8 9 10 11 12 13
000
FTUS44 KMOB 251139
TAFBFM
TAF
KBFM 251139Z 2512/2612 32005KT P6SM BKN250
     FM251500 13005KT P6SM BKN250
     FM251800 15010KT P6SM SCT040 BKN250=

USA.gov is the U.S. government's official web portal to all federal, state and local government web resources and services.